Tuskegee, Oklahoma
Current Conditions -  °F | °C
As of 9:15 AM on Friday 31 Oct 2014 (Local Time) from KOKM Reporting Station
Clear Clear  
Wind Chill: 44°   Ceiling: Unl
Heat Index: 49°   Visibility: 10mi
Dew Point: 41°   Wind: 13mph
Humidity: 73%   Direction: 350°N
Pressure: 30.38"   Gusts: 21mph
Location:  35.7718°N, 96.3174°W
Report Text: KOKM 311415Z AUTO 35011G18KT 10SM CLR 10/05 A3038 RMK AO2 T00950048
Loading
Personal Weather Stations






























Interactive Weather Map
Tropical Storm Tracking
New forecast layout! Learn more

10-Day Weather Forecast

Advertisements
Track Severe Weather on mobile